sensor_id;sensor_type;location;lat;lon;timestamp;P1;durP1;ratioP1;P2;durP2;ratioP2
75758;SDS011;64371;47.566;19.086;2023-09-08T00:00:08;7.90;;;5.30;;
75758;SDS011;64371;47.566;19.086;2023-09-08T00:03:11;8.10;;;4.97;;
75758;SDS011;64371;47.566;19.086;2023-09-08T00:06:13;9.90;;;5.47;;
75758;SDS011;64371;47.566;19.086;2023-09-08T00:09:16;8.10;;;5.15;;
75758;SDS011;64371;47.566;19.086;2023-09-08T00:12:18;7.35;;;5.13;;
75758;SDS011;64371;47.566;19.086;2023-09-08T00:15:20;7.63;;;4.90;;
75758;SDS011;64371;47.566;19.086;2023-09-08T00:18:23;11.40;;;5.28;;
75758;SDS011;64371;47.566;19.086;2023-09-08T00:21:26;8.85;;;4.90;;
75758;SDS011;64371;47.566;19.086;2023-09-08T00:24:28;7.50;;;4.85;;
75758;SDS011;64371;47.566;19.086;2023-09-08T00:27:31;7.68;;;5.03;;
75758;SDS011;64371;47.566;19.086;2023-09-08T00:30:33;7.67;;;4.80;;
75758;SDS011;64371;47.566;19.086;2023-09-08T00:33:36;8.15;;;5.13;;
75758;SDS011;64371;47.566;19.086;2023-09-08T00:36:39;7.95;;;4.93;;
75758;SDS011;64371;47.566;19.086;2023-09-08T00:39:41;8.43;;;5.07;;
75758;SDS011;64371;47.566;19.086;2023-09-08T00:42:44;8.40;;;5.10;;
75758;SDS011;64371;47.566;19.086;2023-09-08T00:45:46;6.60;;;4.60;;
75758;SDS011;64371;47.566;19.086;2023-09-08T00:48:50;7.25;;;5.05;;
75758;SDS011;64371;47.566;19.086;2023-09-08T00:51:52;6.72;;;4.95;;
75758;SDS011;64371;47.566;19.086;2023-09-08T00:54:55;7.20;;;5.35;;
75758;SDS011;64371;47.566;19.086;2023-09-08T00:57:58;7.47;;;5.00;;
75758;SDS011;64371;47.566;19.086;2023-09-08T01:01:00;8.97;;;5.60;;
75758;SDS011;64371;47.566;19.086;2023-09-08T01:04:03;8.52;;;4.97;;
75758;SDS011;64371;47.566;19.086;2023-09-08T01:07:06;8.82;;;4.93;;
75758;SDS011;64371;47.566;19.086;2023-09-08T01:10:08;7.00;;;4.80;;
75758;SDS011;64371;47.566;19.086;2023-09-08T01:13:11;8.43;;;5.10;;
75758;SDS011;64371;47.566;19.086;2023-09-08T01:16:15;8.03;;;4.97;;
75758;SDS011;64371;47.566;19.086;2023-09-08T01:19:18;8.13;;;5.03;;
75758;SDS011;64371;47.566;19.086;2023-09-08T01:22:23;7.00;;;4.90;;
75758;SDS011;64371;47.566;19.086;2023-09-08T01:29:11;7.35;;;5.20;;
75758;SDS011;64371;47.566;19.086;2023-09-08T01:32:15;7.97;;;5.50;;
75758;SDS011;64371;47.566;19.086;2023-09-08T01:35:19;7.60;;;5.30;;
75758;SDS011;64371;47.566;19.086;2023-09-08T01:38:23;7.03;;;5.20;;
75758;SDS011;64371;47.566;19.086;2023-09-08T01:41:27;7.18;;;5.07;;
75758;SDS011;64371;47.566;19.086;2023-09-08T01:44:29;6.97;;;5.07;;
75758;SDS011;64371;47.566;19.086;2023-09-08T01:47:32;9.97;;;5.77;;
75758;SDS011;64371;47.566;19.086;2023-09-08T01:50:35;8.68;;;5.82;;
75758;SDS011;64371;47.566;19.086;2023-09-08T01:53:37;8.15;;;5.80;;
75758;SDS011;64371;47.566;19.086;2023-09-08T01:56:40;8.48;;;5.53;;
75758;SDS011;64371;47.566;19.086;2023-09-08T01:59:42;10.52;;;5.63;;
75758;SDS011;64371;47.566;19.086;2023-09-08T02:02:45;8.70;;;5.60;;
75758;SDS011;64371;47.566;19.086;2023-09-08T02:05:47;10.50;;;6.22;;
75758;SDS011;64371;47.566;19.086;2023-09-08T02:08:50;9.95;;;5.40;;
75758;SDS011;64371;47.566;19.086;2023-09-08T02:11:52;8.52;;;5.40;;
75758;SDS011;64371;47.566;19.086;2023-09-08T02:14:56;6.60;;;4.78;;
75758;SDS011;64371;47.566;19.086;2023-09-08T02:18:00;7.63;;;5.00;;
75758;SDS011;64371;47.566;19.086;2023-09-08T02:21:03;8.07;;;5.65;;
75758;SDS011;64371;47.566;19.086;2023-09-08T02:24:05;7.32;;;5.40;;
75758;SDS011;64371;47.566;19.086;2023-09-08T02:27:11;7.55;;;5.00;;
75758;SDS011;64371;47.566;19.086;2023-09-08T02:30:14;8.20;;;5.47;;
75758;SDS011;64371;47.566;19.086;2023-09-08T02:33:17;7.97;;;5.00;;
75758;SDS011;64371;47.566;19.086;2023-09-08T02:36:20;7.93;;;5.60;;
75758;SDS011;64371;47.566;19.086;2023-09-08T02:39:29;9.23;;;4.78;;
75758;SDS011;64371;47.566;19.086;2023-09-08T02:42:31;7.28;;;4.95;;
75758;SDS011;64371;47.566;19.086;2023-09-08T02:45:34;9.25;;;5.70;;
75758;SDS011;64371;47.566;19.086;2023-09-08T02:48:38;7.47;;;5.20;;
75758;SDS011;64371;47.566;19.086;2023-09-08T02:51:41;8.05;;;5.32;;
75758;SDS011;64371;47.566;19.086;2023-09-08T02:54:44;8.23;;;5.43;;
75758;SDS011;64371;47.566;19.086;2023-09-08T02:57:46;7.88;;;5.47;;
75758;SDS011;64371;47.566;19.086;2023-09-08T03:00:48;8.65;;;5.63;;
75758;SDS011;64371;47.566;19.086;2023-09-08T03:03:51;10.43;;;5.67;;
75758;SDS011;64371;47.566;19.086;2023-09-08T03:06:55;7.35;;;5.10;;
75758;SDS011;64371;47.566;19.086;2023-09-08T03:09:59;8.32;;;5.60;;
75758;SDS011;64371;47.566;19.086;2023-09-08T03:13:02;9.60;;;5.45;;
75758;SDS011;64371;47.566;19.086;2023-09-08T03:16:05;9.48;;;5.53;;
75758;SDS011;64371;47.566;19.086;2023-09-08T03:19:08;8.10;;;5.27;;
75758;SDS011;64371;47.566;19.086;2023-09-08T03:22:11;7.30;;;5.03;;
75758;SDS011;64371;47.566;19.086;2023-09-08T03:25:14;7.97;;;5.40;;
75758;SDS011;64371;47.566;19.086;2023-09-08T03:28:17;8.50;;;5.22;;
75758;SDS011;64371;47.566;19.086;2023-09-08T03:31:20;7.30;;;5.18;;
75758;SDS011;64371;47.566;19.086;2023-09-08T03:34:22;7.73;;;5.00;;
75758;SDS011;64371;47.566;19.086;2023-09-08T03:37:27;8.52;;;5.30;;
75758;SDS011;64371;47.566;19.086;2023-09-08T03:40:29;9.15;;;6.05;;
75758;SDS011;64371;47.566;19.086;2023-09-08T03:43:32;27.38;;;5.88;;
75758;SDS011;64371;47.566;19.086;2023-09-08T03:46:36;9.98;;;6.05;;
75758;SDS011;64371;47.566;19.086;2023-09-08T03:49:39;8.27;;;5.30;;
75758;SDS011;64371;47.566;19.086;2023-09-08T03:52:41;8.82;;;5.30;;
75758;SDS011;64371;47.566;19.086;2023-09-08T03:55:44;10.88;;;6.55;;
75758;SDS011;64371;47.566;19.086;2023-09-08T03:58:46;8.95;;;5.90;;
75758;SDS011;64371;47.566;19.086;2023-09-08T04:01:49;11.98;;;6.22;;
75758;SDS011;64371;47.566;19.086;2023-09-08T04:04:52;10.97;;;6.27;;
75758;SDS011;64371;47.566;19.086;2023-09-08T04:07:54;9.40;;;6.47;;
75758;SDS011;64371;47.566;19.086;2023-09-08T04:10:56;11.18;;;6.65;;
75758;SDS011;64371;47.566;19.086;2023-09-08T04:14:00;11.05;;;6.35;;
75758;SDS011;64371;47.566;19.086;2023-09-08T04:17:02;11.27;;;7.35;;
75758;SDS011;64371;47.566;19.086;2023-09-08T04:20:06;10.90;;;7.33;;
75758;SDS011;64371;47.566;19.086;2023-09-08T04:23:10;11.27;;;7.57;;
75758;SDS011;64371;47.566;19.086;2023-09-08T04:26:12;10.90;;;7.00;;
75758;SDS011;64371;47.566;19.086;2023-09-08T04:29:15;13.27;;;7.40;;
75758;SDS011;64371;47.566;19.086;2023-09-08T04:32:18;12.50;;;7.60;;
75758;SDS011;64371;47.566;19.086;2023-09-08T04:35:20;13.97;;;7.80;;
75758;SDS011;64371;47.566;19.086;2023-09-08T04:38:22;9.45;;;6.45;;
75758;SDS011;64371;47.566;19.086;2023-09-08T04:41:24;8.82;;;6.05;;
75758;SDS011;64371;47.566;19.086;2023-09-08T04:44:27;9.93;;;6.65;;
75758;SDS011;64371;47.566;19.086;2023-09-08T04:47:30;9.38;;;6.32;;
75758;SDS011;64371;47.566;19.086;2023-09-08T04:50:33;10.27;;;6.70;;
75758;SDS011;64371;47.566;19.086;2023-09-08T04:53:36;10.30;;;6.38;;
75758;SDS011;64371;47.566;19.086;2023-09-08T04:56:40;9.63;;;6.57;;
75758;SDS011;64371;47.566;19.086;2023-09-08T04:59:43;8.82;;;6.38;;
75758;SDS011;64371;47.566;19.086;2023-09-08T05:02:46;8.65;;;6.57;;
75758;SDS011;64371;47.566;19.086;2023-09-08T05:05:49;13.07;;;6.33;;
75758;SDS011;64371;47.566;19.086;2023-09-08T05:08:52;8.90;;;6.15;;
75758;SDS011;64371;47.566;19.086;2023-09-08T05:11:57;8.55;;;5.95;;
75758;SDS011;64371;47.566;19.086;2023-09-08T05:15:01;9.35;;;6.05;;
75758;SDS011;64371;47.566;19.086;2023-09-08T05:18:11;8.30;;;5.45;;
75758;SDS011;64371;47.566;19.086;2023-09-08T05:21:14;13.60;;;5.87;;
75758;SDS011;64371;47.566;19.086;2023-09-08T05:24:17;8.80;;;5.90;;
75758;SDS011;64371;47.566;19.086;2023-09-08T05:27:20;9.68;;;6.35;;
75758;SDS011;64371;47.566;19.086;2023-09-08T05:30:22;6.85;;;5.40;;
75758;SDS011;64371;47.566;19.086;2023-09-08T05:33:25;8.25;;;5.57;;
75758;SDS011;64371;47.566;19.086;2023-09-08T05:36:28;11.83;;;6.07;;
75758;SDS011;64371;47.566;19.086;2023-09-08T05:39:32;9.40;;;5.97;;
75758;SDS011;64371;47.566;19.086;2023-09-08T05:42:35;11.18;;;6.35;;
75758;SDS011;64371;47.566;19.086;2023-09-08T05:45:37;7.78;;;5.43;;
75758;SDS011;64371;47.566;19.086;2023-09-08T05:48:40;10.15;;;5.57;;
75758;SDS011;64371;47.566;19.086;2023-09-08T05:51:43;8.47;;;6.43;;
75758;SDS011;64371;47.566;19.086;2023-09-08T05:54:48;8.00;;;5.88;;
75758;SDS011;64371;47.566;19.086;2023-09-08T05:57:50;10.90;;;5.70;;
75758;SDS011;64371;47.566;19.086;2023-09-08T06:00:54;14.45;;;10.02;;
75758;SDS011;64371;47.566;19.086;2023-09-08T06:03:57;12.13;;;5.60;;
75758;SDS011;64371;47.566;19.086;2023-09-08T06:07:02;9.53;;;5.37;;
75758;SDS011;64371;47.566;19.086;2023-09-08T06:10:06;10.90;;;6.35;;
75758;SDS011;64371;47.566;19.086;2023-09-08T06:13:10;8.77;;;5.85;;
75758;SDS011;64371;47.566;19.086;2023-09-08T06:16:16;6.95;;;5.30;;
75758;SDS011;64371;47.566;19.086;2023-09-08T06:19:20;9.40;;;6.53;;
75758;SDS011;64371;47.566;19.086;2023-09-08T06:22:23;9.17;;;5.80;;
75758;SDS011;64371;47.566;19.086;2023-09-08T06:25:26;8.32;;;5.93;;
75758;SDS011;64371;47.566;19.086;2023-09-08T06:28:30;7.63;;;5.80;;
75758;SDS011;64371;47.566;19.086;2023-09-08T06:31:33;9.50;;;5.53;;
75758;SDS011;64371;47.566;19.086;2023-09-08T06:34:37;8.23;;;5.95;;
75758;SDS011;64371;47.566;19.086;2023-09-08T06:37:40;10.20;;;6.00;;
75758;SDS011;64371;47.566;19.086;2023-09-08T06:40:43;8.30;;;5.97;;
75758;SDS011;64371;47.566;19.086;2023-09-08T06:43:46;7.45;;;5.78;;
75758;SDS011;64371;47.566;19.086;2023-09-08T06:46:54;8.07;;;5.65;;
75758;SDS011;64371;47.566;19.086;2023-09-08T06:49:58;9.88;;;5.93;;
75758;SDS011;64371;47.566;19.086;2023-09-08T06:53:00;11.17;;;5.53;;
75758;SDS011;64371;47.566;19.086;2023-09-08T06:56:04;9.18;;;5.93;;
75758;SDS011;64371;47.566;19.086;2023-09-08T06:59:07;9.15;;;5.78;;
75758;SDS011;64371;47.566;19.086;2023-09-08T07:02:10;8.45;;;6.03;;
75758;SDS011;64371;47.566;19.086;2023-09-08T07:05:13;9.55;;;5.63;;
75758;SDS011;64371;47.566;19.086;2023-09-08T07:08:16;8.13;;;5.60;;
75758;SDS011;64371;47.566;19.086;2023-09-08T07:11:20;7.82;;;5.35;;
75758;SDS011;64371;47.566;19.086;2023-09-08T07:14:23;10.30;;;6.28;;
75758;SDS011;64371;47.566;19.086;2023-09-08T07:17:26;9.77;;;5.95;;
75758;SDS011;64371;47.566;19.086;2023-09-08T07:20:29;9.90;;;5.22;;
75758;SDS011;64371;47.566;19.086;2023-09-08T07:23:32;7.87;;;6.07;;
75758;SDS011;64371;47.566;19.086;2023-09-08T07:26:35;8.48;;;5.50;;
75758;SDS011;64371;47.566;19.086;2023-09-08T07:29:37;7.03;;;6.00;;
75758;SDS011;64371;47.566;19.086;2023-09-08T07:32:40;9.57;;;6.15;;
75758;SDS011;64371;47.566;19.086;2023-09-08T07:35:43;8.93;;;6.18;;
75758;SDS011;64371;47.566;19.086;2023-09-08T07:38:46;9.73;;;6.17;;
75758;SDS011;64371;47.566;19.086;2023-09-08T07:41:50;8.13;;;5.80;;
75758;SDS011;64371;47.566;19.086;2023-09-08T07:44:53;7.72;;;5.53;;
75758;SDS011;64371;47.566;19.086;2023-09-08T07:47:56;8.02;;;5.85;;
75758;SDS011;64371;47.566;19.086;2023-09-08T07:50:58;9.63;;;6.07;;
75758;SDS011;64371;47.566;19.086;2023-09-08T07:54:02;8.80;;;5.97;;
75758;SDS011;64371;47.566;19.086;2023-09-08T07:57:06;8.25;;;5.85;;
75758;SDS011;64371;47.566;19.086;2023-09-08T08:00:08;12.63;;;6.03;;
75758;SDS011;64371;47.566;19.086;2023-09-08T08:03:13;8.90;;;5.80;;
75758;SDS011;64371;47.566;19.086;2023-09-08T08:06:15;11.10;;;5.95;;
75758;SDS011;64371;47.566;19.086;2023-09-08T08:09:18;8.70;;;6.27;;
75758;SDS011;64371;47.566;19.086;2023-09-08T08:12:21;20.08;;;7.03;;
75758;SDS011;64371;47.566;19.086;2023-09-08T08:15:33;12.55;;;6.28;;
75758;SDS011;64371;47.566;19.086;2023-09-08T08:18:37;12.05;;;6.32;;
75758;SDS011;64371;47.566;19.086;2023-09-08T08:21:41;8.18;;;6.32;;
75758;SDS011;64371;47.566;19.086;2023-09-08T08:24:45;8.53;;;6.33;;
75758;SDS011;64371;47.566;19.086;2023-09-08T08:27:48;9.27;;;5.88;;
75758;SDS011;64371;47.566;19.086;2023-09-08T08:30:50;9.85;;;5.88;;
75758;SDS011;64371;47.566;19.086;2023-09-08T08:33:54;10.18;;;6.20;;
75758;SDS011;64371;47.566;19.086;2023-09-08T08:36:56;8.88;;;6.22;;
75758;SDS011;64371;47.566;19.086;2023-09-08T08:39:59;11.67;;;6.40;;
75758;SDS011;64371;47.566;19.086;2023-09-08T08:43:01;9.75;;;6.22;;
75758;SDS011;64371;47.566;19.086;2023-09-08T08:46:04;10.73;;;6.57;;
75758;SDS011;64371;47.566;19.086;2023-09-08T08:49:07;9.07;;;6.07;;
75758;SDS011;64371;47.566;19.086;2023-09-08T08:52:12;9.70;;;6.28;;
75758;SDS011;64371;47.566;19.086;2023-09-08T08:55:17;12.33;;;6.80;;
75758;SDS011;64371;47.566;19.086;2023-09-08T08:58:21;13.50;;;6.20;;
75758;SDS011;64371;47.566;19.086;2023-09-08T09:01:26;8.60;;;6.05;;
75758;SDS011;64371;47.566;19.086;2023-09-08T09:04:32;10.80;;;6.28;;
75758;SDS011;64371;47.566;19.086;2023-09-08T09:07:35;9.52;;;6.30;;
75758;SDS011;64371;47.566;19.086;2023-09-08T09:10:39;8.53;;;6.10;;
75758;SDS011;64371;47.566;19.086;2023-09-08T09:13:41;8.77;;;5.60;;
75758;SDS011;64371;47.566;19.086;2023-09-08T09:16:44;11.73;;;6.20;;
75758;SDS011;64371;47.566;19.086;2023-09-08T09:19:46;7.60;;;6.18;;
75758;SDS011;64371;47.566;19.086;2023-09-08T09:22:49;14.55;;;9.55;;
75758;SDS011;64371;47.566;19.086;2023-09-08T09:25:52;11.07;;;6.00;;
75758;SDS011;64371;47.566;19.086;2023-09-08T09:28:54;10.40;;;6.15;;
75758;SDS011;64371;47.566;19.086;2023-09-08T09:32:03;10.13;;;5.80;;
75758;SDS011;64371;47.566;19.086;2023-09-08T09:35:08;10.70;;;6.10;;
75758;SDS011;64371;47.566;19.086;2023-09-08T09:38:11;9.73;;;6.28;;
75758;SDS011;64371;47.566;19.086;2023-09-08T09:41:15;7.73;;;5.90;;
75758;SDS011;64371;47.566;19.086;2023-09-08T09:44:19;8.82;;;5.70;;
75758;SDS011;64371;47.566;19.086;2023-09-08T09:47:23;10.25;;;5.32;;
75758;SDS011;64371;47.566;19.086;2023-09-08T09:50:27;7.07;;;5.20;;
75758;SDS011;64371;47.566;19.086;2023-09-08T09:53:33;9.23;;;6.60;;
75758;SDS011;64371;47.566;19.086;2023-09-08T09:56:37;10.07;;;6.10;;
75758;SDS011;64371;47.566;19.086;2023-09-08T09:59:41;11.73;;;6.32;;
75758;SDS011;64371;47.566;19.086;2023-09-08T10:02:47;8.55;;;5.95;;
75758;SDS011;64371;47.566;19.086;2023-09-08T10:05:50;11.32;;;6.95;;
75758;SDS011;64371;47.566;19.086;2023-09-08T10:08:53;7.47;;;5.95;;
75758;SDS011;64371;47.566;19.086;2023-09-08T10:11:59;12.80;;;7.20;;
75758;SDS011;64371;47.566;19.086;2023-09-08T10:15:06;9.10;;;6.13;;
75758;SDS011;64371;47.566;19.086;2023-09-08T10:18:11;8.75;;;5.97;;
75758;SDS011;64371;47.566;19.086;2023-09-08T10:21:18;8.43;;;5.60;;
75758;SDS011;64371;47.566;19.086;2023-09-08T10:24:24;11.55;;;6.05;;
75758;SDS011;64371;47.566;19.086;2023-09-08T10:27:34;7.00;;;5.50;;
75758;SDS011;64371;47.566;19.086;2023-09-08T10:30:40;11.13;;;5.63;;
75758;SDS011;64371;47.566;19.086;2023-09-08T10:33:43;7.47;;;6.10;;
75758;SDS011;64371;47.566;19.086;2023-09-08T10:36:47;10.73;;;5.47;;
75758;SDS011;64371;47.566;19.086;2023-09-08T10:39:50;11.98;;;5.40;;
75758;SDS011;64371;47.566;19.086;2023-09-08T10:43:07;12.07;;;5.57;;
75758;SDS011;64371;47.566;19.086;2023-09-08T10:46:12;5.47;;;4.38;;
75758;SDS011;64371;47.566;19.086;2023-09-08T10:49:24;7.25;;;4.88;;
75758;SDS011;64371;47.566;19.086;2023-09-08T10:52:26;10.38;;;4.75;;
75758;SDS011;64371;47.566;19.086;2023-09-08T10:55:36;7.47;;;4.72;;
75758;SDS011;64371;47.566;19.086;2023-09-08T10:58:43;8.03;;;4.60;;
75758;SDS011;64371;47.566;19.086;2023-09-08T11:01:46;5.28;;;3.95;;
75758;SDS011;64371;47.566;19.086;2023-09-08T11:04:50;7.68;;;4.30;;
75758;SDS011;64371;47.566;19.086;2023-09-08T11:07:53;5.38;;;3.33;;
75758;SDS011;64371;47.566;19.086;2023-09-08T11:10:56;8.13;;;4.53;;
75758;SDS011;64371;47.566;19.086;2023-09-08T11:13:58;7.30;;;4.27;;
75758;SDS011;64371;47.566;19.086;2023-09-08T11:17:03;9.02;;;4.53;;
75758;SDS011;64371;47.566;19.086;2023-09-08T11:20:06;5.20;;;3.97;;
75758;SDS011;64371;47.566;19.086;2023-09-08T11:23:11;5.00;;;3.97;;
75758;SDS011;64371;47.566;19.086;2023-09-08T11:26:15;7.47;;;3.80;;
75758;SDS011;64371;47.566;19.086;2023-09-08T11:29:18;7.87;;;4.53;;
75758;SDS011;64371;47.566;19.086;2023-09-08T11:32:21;8.00;;;4.70;;
75758;SDS011;64371;47.566;19.086;2023-09-08T11:35:24;4.43;;;3.25;;
75758;SDS011;64371;47.566;19.086;2023-09-08T11:38:29;6.85;;;3.72;;
75758;SDS011;64371;47.566;19.086;2023-09-08T11:41:34;6.68;;;3.58;;
75758;SDS011;64371;47.566;19.086;2023-09-08T11:44:37;5.80;;;3.20;;
75758;SDS011;64371;47.566;19.086;2023-09-08T11:47:41;6.00;;;3.58;;
75758;SDS011;64371;47.566;19.086;2023-09-08T11:50:44;4.65;;;3.72;;
75758;SDS011;64371;47.566;19.086;2023-09-08T11:53:49;5.35;;;4.13;;
75758;SDS011;64371;47.566;19.086;2023-09-08T11:56:54;9.02;;;4.15;;
75758;SDS011;64371;47.566;19.086;2023-09-08T11:59:57;5.07;;;3.77;;
75758;SDS011;64371;47.566;19.086;2023-09-08T12:03:11;5.13;;;3.65;;
75758;SDS011;64371;47.566;19.086;2023-09-08T12:06:15;7.78;;;3.90;;
75758;SDS011;64371;47.566;19.086;2023-09-08T12:09:22;7.03;;;4.35;;
75758;SDS011;64371;47.566;19.086;2023-09-08T12:12:27;8.77;;;4.07;;
75758;SDS011;64371;47.566;19.086;2023-09-08T12:15:34;4.63;;;3.23;;
75758;SDS011;64371;47.566;19.086;2023-09-08T12:18:40;7.15;;;3.75;;
75758;SDS011;64371;47.566;19.086;2023-09-08T12:21:55;5.55;;;4.03;;
75758;SDS011;64371;47.566;19.086;2023-09-08T12:25:01;3.95;;;2.80;;
75758;SDS011;64371;47.566;19.086;2023-09-08T12:28:04;6.68;;;4.32;;
75758;SDS011;64371;47.566;19.086;2023-09-08T12:31:07;5.97;;;3.67;;
75758;SDS011;64371;47.566;19.086;2023-09-08T12:34:10;4.63;;;3.22;;
75758;SDS011;64371;47.566;19.086;2023-09-08T12:37:18;5.53;;;3.90;;
75758;SDS011;64371;47.566;19.086;2023-09-08T12:40:23;6.53;;;3.97;;
75758;SDS011;64371;47.566;19.086;2023-09-08T12:43:26;6.32;;;4.25;;
75758;SDS011;64371;47.566;19.086;2023-09-08T12:46:30;6.27;;;3.93;;
75758;SDS011;64371;47.566;19.086;2023-09-08T12:49:34;5.88;;;3.80;;
75758;SDS011;64371;47.566;19.086;2023-09-08T12:52:36;5.82;;;3.33;;
75758;SDS011;64371;47.566;19.086;2023-09-08T12:55:39;5.28;;;3.70;;
75758;SDS011;64371;47.566;19.086;2023-09-08T12:58:41;7.35;;;4.32;;
75758;SDS011;64371;47.566;19.086;2023-09-08T13:01:44;5.00;;;4.20;;
75758;SDS011;64371;47.566;19.086;2023-09-08T13:04:47;4.72;;;3.20;;
75758;SDS011;64371;47.566;19.086;2023-09-08T13:07:50;5.18;;;3.95;;
75758;SDS011;64371;47.566;19.086;2023-09-08T13:10:53;6.03;;;3.55;;
75758;SDS011;64371;47.566;19.086;2023-09-08T13:13:55;8.95;;;4.03;;
75758;SDS011;64371;47.566;19.086;2023-09-08T13:16:58;5.03;;;3.50;;
75758;SDS011;64371;47.566;19.086;2023-09-08T13:20:01;4.22;;;3.83;;
75758;SDS011;64371;47.566;19.086;2023-09-08T13:23:05;5.80;;;3.90;;
75758;SDS011;64371;47.566;19.086;2023-09-08T13:26:09;6.03;;;4.35;;
75758;SDS011;64371;47.566;19.086;2023-09-08T13:29:11;4.80;;;3.92;;
75758;SDS011;64371;47.566;19.086;2023-09-08T13:32:13;5.63;;;4.10;;
75758;SDS011;64371;47.566;19.086;2023-09-08T13:35:16;8.65;;;3.75;;
75758;SDS011;64371;47.566;19.086;2023-09-08T13:38:19;6.82;;;3.60;;
75758;SDS011;64371;47.566;19.086;2023-09-08T13:41:21;4.28;;;3.85;;
75758;SDS011;64371;47.566;19.086;2023-09-08T13:44:24;5.07;;;3.58;;
75758;SDS011;64371;47.566;19.086;2023-09-08T13:47:27;5.43;;;3.60;;
75758;SDS011;64371;47.566;19.086;2023-09-08T13:50:30;8.27;;;3.83;;
75758;SDS011;64371;47.566;19.086;2023-09-08T13:53:35;5.55;;;3.80;;
75758;SDS011;64371;47.566;19.086;2023-09-08T13:56:56;4.93;;;3.38;;
75758;SDS011;64371;47.566;19.086;2023-09-08T14:00:03;7.82;;;3.55;;
75758;SDS011;64371;47.566;19.086;2023-09-08T14:03:16;4.50;;;3.40;;
75758;SDS011;64371;47.566;19.086;2023-09-08T14:06:23;4.15;;;3.22;;
75758;SDS011;64371;47.566;19.086;2023-09-08T14:09:32;4.50;;;3.55;;
75758;SDS011;64371;47.566;19.086;2023-09-08T14:12:54;4.35;;;2.75;;
75758;SDS011;64371;47.566;19.086;2023-09-08T14:15:57;6.00;;;3.83;;
75758;SDS011;64371;47.566;19.086;2023-09-08T14:19:03;4.07;;;3.27;;
75758;SDS011;64371;47.566;19.086;2023-09-08T14:22:05;6.57;;;3.80;;
75758;SDS011;64371;47.566;19.086;2023-09-08T14:25:08;6.43;;;3.08;;
75758;SDS011;64371;47.566;19.086;2023-09-08T14:28:10;9.32;;;5.28;;
75758;SDS011;64371;47.566;19.086;2023-09-08T14:31:13;5.70;;;3.70;;
75758;SDS011;64371;47.566;19.086;2023-09-08T14:34:15;5.60;;;3.57;;
75758;SDS011;64371;47.566;19.086;2023-09-08T14:37:19;4.72;;;3.25;;
75758;SDS011;64371;47.566;19.086;2023-09-08T14:40:22;4.78;;;3.88;;
75758;SDS011;64371;47.566;19.086;2023-09-08T14:43:25;6.10;;;3.65;;
75758;SDS011;64371;47.566;19.086;2023-09-08T14:46:27;5.35;;;3.80;;
75758;SDS011;64371;47.566;19.086;2023-09-08T14:49:31;6.10;;;3.43;;
75758;SDS011;64371;47.566;19.086;2023-09-08T14:52:34;5.50;;;3.53;;
75758;SDS011;64371;47.566;19.086;2023-09-08T14:55:39;5.88;;;3.60;;
75758;SDS011;64371;47.566;19.086;2023-09-08T14:58:44;4.78;;;3.50;;
75758;SDS011;64371;47.566;19.086;2023-09-08T15:01:47;4.47;;;3.40;;
75758;SDS011;64371;47.566;19.086;2023-09-08T15:04:52;3.70;;;2.67;;
75758;SDS011;64371;47.566;19.086;2023-09-08T15:07:54;4.80;;;3.65;;
75758;SDS011;64371;47.566;19.086;2023-09-08T15:10:59;5.22;;;3.35;;
75758;SDS011;64371;47.566;19.086;2023-09-08T15:14:03;4.45;;;3.10;;
75758;SDS011;64371;47.566;19.086;2023-09-08T15:17:05;6.45;;;3.50;;
75758;SDS011;64371;47.566;19.086;2023-09-08T15:20:08;6.73;;;3.93;;
75758;SDS011;64371;47.566;19.086;2023-09-08T15:23:11;6.57;;;3.85;;
75758;SDS011;64371;47.566;19.086;2023-09-08T15:26:14;4.97;;;3.90;;
75758;SDS011;64371;47.566;19.086;2023-09-08T15:29:16;5.63;;;3.90;;
75758;SDS011;64371;47.566;19.086;2023-09-08T15:32:19;5.63;;;3.70;;
75758;SDS011;64371;47.566;19.086;2023-09-08T15:35:21;5.67;;;3.40;;
75758;SDS011;64371;47.566;19.086;2023-09-08T15:38:24;7.03;;;4.05;;
75758;SDS011;64371;47.566;19.086;2023-09-08T15:41:27;5.93;;;3.85;;
75758;SDS011;64371;47.566;19.086;2023-09-08T15:44:30;5.68;;;3.95;;
75758;SDS011;64371;47.566;19.086;2023-09-08T15:47:32;7.10;;;4.00;;
75758;SDS011;64371;47.566;19.086;2023-09-08T15:50:34;6.33;;;3.73;;
75758;SDS011;64371;47.566;19.086;2023-09-08T15:53:37;6.43;;;4.18;;
75758;SDS011;64371;47.566;19.086;2023-09-08T15:56:40;6.55;;;4.32;;
75758;SDS011;64371;47.566;19.086;2023-09-08T15:59:42;8.63;;;4.05;;
75758;SDS011;64371;47.566;19.086;2023-09-08T16:02:46;7.13;;;3.63;;
75758;SDS011;64371;47.566;19.086;2023-09-08T16:05:50;5.43;;;3.83;;
75758;SDS011;64371;47.566;19.086;2023-09-08T16:08:52;4.50;;;3.58;;
75758;SDS011;64371;47.566;19.086;2023-09-08T16:11:55;6.00;;;3.90;;
75758;SDS011;64371;47.566;19.086;2023-09-08T16:14:57;5.85;;;4.68;;
75758;SDS011;64371;47.566;19.086;2023-09-08T16:18:00;5.93;;;4.10;;
75758;SDS011;64371;47.566;19.086;2023-09-08T16:21:03;4.90;;;3.90;;
75758;SDS011;64371;47.566;19.086;2023-09-08T16:24:05;4.80;;;3.65;;
75758;SDS011;64371;47.566;19.086;2023-09-08T16:27:08;4.82;;;3.67;;
75758;SDS011;64371;47.566;19.086;2023-09-08T16:30:12;7.75;;;4.15;;
75758;SDS011;64371;47.566;19.086;2023-09-08T16:33:14;8.07;;;3.95;;
75758;SDS011;64371;47.566;19.086;2023-09-08T16:36:17;9.70;;;4.00;;
75758;SDS011;64371;47.566;19.086;2023-09-08T16:39:20;5.65;;;4.22;;
75758;SDS011;64371;47.566;19.086;2023-09-08T16:42:22;8.00;;;3.60;;
75758;SDS011;64371;47.566;19.086;2023-09-08T16:45:25;6.00;;;4.28;;
75758;SDS011;64371;47.566;19.086;2023-09-08T16:48:27;7.10;;;3.78;;
75758;SDS011;64371;47.566;19.086;2023-09-08T16:51:30;6.70;;;4.13;;
75758;SDS011;64371;47.566;19.086;2023-09-08T16:54:32;14.43;;;4.50;;
75758;SDS011;64371;47.566;19.086;2023-09-08T16:57:36;7.00;;;4.72;;
75758;SDS011;64371;47.566;19.086;2023-09-08T17:00:38;7.43;;;4.22;;
75758;SDS011;64371;47.566;19.086;2023-09-08T17:03:42;9.18;;;4.88;;
75758;SDS011;64371;47.566;19.086;2023-09-08T17:06:44;9.13;;;4.33;;
75758;SDS011;64371;47.566;19.086;2023-09-08T17:09:47;6.63;;;4.47;;
75758;SDS011;64371;47.566;19.086;2023-09-08T17:12:49;8.32;;;5.80;;
75758;SDS011;64371;47.566;19.086;2023-09-08T17:15:52;7.45;;;4.82;;
75758;SDS011;64371;47.566;19.086;2023-09-08T17:18:54;8.50;;;5.20;;
75758;SDS011;64371;47.566;19.086;2023-09-08T17:21:56;9.60;;;5.17;;
75758;SDS011;64371;47.566;19.086;2023-09-08T17:25:00;8.23;;;4.80;;
75758;SDS011;64371;47.566;19.086;2023-09-08T17:28:03;10.02;;;5.30;;
75758;SDS011;64371;47.566;19.086;2023-09-08T17:31:05;11.32;;;5.13;;
75758;SDS011;64371;47.566;19.086;2023-09-08T17:34:08;7.97;;;5.13;;
75758;SDS011;64371;47.566;19.086;2023-09-08T17:37:19;8.13;;;5.20;;
75758;SDS011;64371;47.566;19.086;2023-09-08T17:40:22;11.10;;;5.28;;
75758;SDS011;64371;47.566;19.086;2023-09-08T17:43:24;9.68;;;5.72;;
75758;SDS011;64371;47.566;19.086;2023-09-08T17:46:27;11.88;;;5.90;;
75758;SDS011;64371;47.566;19.086;2023-09-08T17:49:30;12.07;;;5.47;;
75758;SDS011;64371;47.566;19.086;2023-09-08T17:52:33;12.10;;;5.67;;
75758;SDS011;64371;47.566;19.086;2023-09-08T17:55:35;10.50;;;5.95;;
75758;SDS011;64371;47.566;19.086;2023-09-08T17:58:38;9.77;;;6.43;;
75758;SDS011;64371;47.566;19.086;2023-09-08T18:01:40;10.95;;;6.30;;
75758;SDS011;64371;47.566;19.086;2023-09-08T18:04:42;10.70;;;5.88;;
75758;SDS011;64371;47.566;19.086;2023-09-08T18:07:45;9.87;;;5.67;;